sensor_id;sensor_type;location;lat;lon;timestamp;pressure;altitude;pressure_sealevel;temperature;humidity
33189;BME280;52601;53.070;10.600;2022-08-19T00:00:42;100824.09;;;20.32;100.00
33189;BME280;52601;53.070;10.600;2022-08-19T00:03:28;100825.91;;;20.31;100.00
33189;BME280;52601;53.070;10.600;2022-08-19T00:06:14;100826.31;;;20.06;100.00
33189;BME280;52601;53.070;10.600;2022-08-19T00:09:08;100825.19;;;20.09;100.00
33189;BME280;52601;53.070;10.600;2022-08-19T00:11:55;100821.91;;;20.16;100.00
33189;BME280;52601;53.070;10.600;2022-08-19T00:14:41;100819.69;;;20.21;100.00
33189;BME280;52601;53.070;10.600;2022-08-19T00:17:27;100834.22;;;20.17;100.00
33189;BME280;52601;53.070;10.600;2022-08-19T00:20:17;100820.72;;;20.09;100.00
33189;BME280;52601;53.070;10.600;2022-08-19T00:23:03;100818.00;;;20.00;100.00
33189;BME280;52601;53.070;10.600;2022-08-19T00:25:48;100807.78;;;20.05;100.00
33189;BME280;52601;53.070;10.600;2022-08-19T00:28:34;100809.34;;;20.07;100.00
33189;BME280;52601;53.070;10.600;2022-08-19T00:31:21;100819.25;;;20.16;100.00
33189;BME280;52601;53.070;10.600;2022-08-19T00:34:07;100817.91;;;20.11;100.00
33189;BME280;52601;53.070;10.600;2022-08-19T00:36:52;100816.09;;;20.11;100.00
33189;BME280;52601;53.070;10.600;2022-08-19T00:39:37;100810.53;;;20.14;100.00
33189;BME280;52601;53.070;10.600;2022-08-19T00:42:23;100816.03;;;20.22;100.00
33189;BME280;52601;53.070;10.600;2022-08-19T00:45:17;100812.59;;;20.11;100.00
33189;BME280;52601;53.070;10.600;2022-08-19T00:48:04;100808.47;;;19.97;100.00
33189;BME280;52601;53.070;10.600;2022-08-19T00:51:00;100797.63;;;19.89;100.00
33189;BME280;52601;53.070;10.600;2022-08-19T00:53:46;100808.47;;;19.97;100.00
33189;BME280;52601;53.070;10.600;2022-08-19T00:56:32;100805.88;;;19.86;100.00
33189;BME280;52601;53.070;10.600;2022-08-19T00:59:19;100813.44;;;19.91;100.00
33189;BME280;52601;53.070;10.600;2022-08-19T01:02:26;100809.22;;;20.09;100.00
33189;BME280;52601;53.070;10.600;2022-08-19T01:05:25;100806.25;;;20.02;100.00
33189;BME280;52601;53.070;10.600;2022-08-19T01:08:14;100812.94;;;19.97;100.00
33189;BME280;52601;53.070;10.600;2022-08-19T01:11:00;100804.38;;;19.93;100.00
33189;BME280;52601;53.070;10.600;2022-08-19T01:13:46;100813.34;;;19.92;100.00
33189;BME280;52601;53.070;10.600;2022-08-19T01:16:35;100800.47;;;19.76;100.00
33189;BME280;52601;53.070;10.600;2022-08-19T01:19:27;100808.72;;;19.94;100.00
33189;BME280;52601;53.070;10.600;2022-08-19T01:22:25;100806.13;;;19.83;100.00
33189;BME280;52601;53.070;10.600;2022-08-19T01:25:21;100797.03;;;19.86;100.00
33189;BME280;52601;53.070;10.600;2022-08-19T01:28:20;100785.22;;;19.78;100.00
33189;BME280;52601;53.070;10.600;2022-08-19T01:31:21;100788.44;;;19.72;100.00
33189;BME280;52601;53.070;10.600;2022-08-19T01:34:11;100787.56;;;19.72;100.00
33189;BME280;52601;53.070;10.600;2022-08-19T01:36:57;100781.03;;;19.76;100.00
33189;BME280;52601;53.070;10.600;2022-08-19T01:39:42;100781.13;;;19.74;100.00
33189;BME280;52601;53.070;10.600;2022-08-19T01:42:28;100787.09;;;19.67;100.00
33189;BME280;52601;53.070;10.600;2022-08-19T01:45:15;100793.94;;;19.60;100.00
33189;BME280;52601;53.070;10.600;2022-08-19T01:48:02;100800.31;;;19.68;100.00
33189;BME280;52601;53.070;10.600;2022-08-19T01:50:47;100793.47;;;19.55;100.00
33189;BME280;52601;53.070;10.600;2022-08-19T01:53:33;100807.38;;;19.58;100.00
33189;BME280;52601;53.070;10.600;2022-08-19T01:56:20;100806.03;;;19.53;100.00
33189;BME280;52601;53.070;10.600;2022-08-19T01:59:10;100797.44;;;19.60;100.00
33189;BME280;52601;53.070;10.600;2022-08-19T02:01:56;100781.91;;;19.45;100.00
33189;BME280;52601;53.070;10.600;2022-08-19T02:04:42;100798.00;;;19.43;100.00
33189;BME280;52601;53.070;10.600;2022-08-19T02:07:28;100806.03;;;19.53;100.00
33189;BME280;52601;53.070;10.600;2022-08-19T02:10:20;100809.94;;;19.49;100.00
33189;BME280;52601;53.070;10.600;2022-08-19T02:13:06;100807.88;;;19.52;100.00
33189;BME280;52601;53.070;10.600;2022-08-19T02:15:52;100808.00;;;19.51;100.00
33189;BME280;52601;53.070;10.600;2022-08-19T02:18:37;100801.31;;;19.36;100.00
33189;BME280;52601;53.070;10.600;2022-08-19T02:21:23;100784.34;;;19.37;100.00
33189;BME280;52601;53.070;10.600;2022-08-19T02:24:09;100772.97;;;19.46;100.00
33189;BME280;52601;53.070;10.600;2022-08-19T02:26:55;100765.03;;;19.35;100.00
33189;BME280;52601;53.070;10.600;2022-08-19T02:29:40;100768.41;;;19.37;100.00
33189;BME280;52601;53.070;10.600;2022-08-19T02:32:26;100725.25;;;19.02;100.00
33189;BME280;52601;53.070;10.600;2022-08-19T02:35:13;100776.28;;;19.38;100.00
33189;BME280;52601;53.070;10.600;2022-08-19T02:37:59;100778.16;;;19.47;100.00
33189;BME280;52601;53.070;10.600;2022-08-19T02:41:12;100766.44;;;19.39;100.00
33189;BME280;52601;53.070;10.600;2022-08-19T02:44:00;100777.81;;;19.41;100.00
33189;BME280;52601;53.070;10.600;2022-08-19T02:47:06;100778.66;;;19.41;100.00
33189;BME280;52601;53.070;10.600;2022-08-19T02:49:52;100785.59;;;19.33;100.00
33189;BME280;52601;53.070;10.600;2022-08-19T02:52:38;100776.69;;;19.23;100.00
33189;BME280;52601;53.070;10.600;2022-08-19T02:55:23;100787.91;;;19.26;100.00
33189;BME280;52601;53.070;10.600;2022-08-19T02:58:09;100793.38;;;19.45;100.00
33189;BME280;52601;53.070;10.600;2022-08-19T03:00:56;100792.72;;;19.32;100.00
33189;BME280;52601;53.070;10.600;2022-08-19T03:03:41;100792.22;;;19.38;100.00
33189;BME280;52601;53.070;10.600;2022-08-19T03:06:27;100802.72;;;19.40;100.00
33189;BME280;52601;53.070;10.600;2022-08-19T03:09:14;100803.25;;;19.34;100.00
33189;BME280;52601;53.070;10.600;2022-08-19T03:12:00;100788.25;;;19.33;100.00
33189;BME280;52601;53.070;10.600;2022-08-19T03:14:45;100796.00;;;19.25;100.00
33189;BME280;52601;53.070;10.600;2022-08-19T03:17:31;100801.31;;;19.25;100.00
33189;BME280;52601;53.070;10.600;2022-08-19T03:20:17;100800.34;;;19.26;100.00
33189;BME280;52601;53.070;10.600;2022-08-19T03:23:02;100811.13;;;19.24;100.00
33189;BME280;52601;53.070;10.600;2022-08-19T03:25:49;100815.84;;;19.21;100.00
33189;BME280;52601;53.070;10.600;2022-08-19T03:28:56;100806.16;;;19.20;100.00
33189;BME280;52601;53.070;10.600;2022-08-19T03:31:43;100814.72;;;19.23;100.00
33189;BME280;52601;53.070;10.600;2022-08-19T03:34:37;100821.63;;;19.26;100.00
33189;BME280;52601;53.070;10.600;2022-08-19T03:37:23;100812.47;;;19.19;100.00
33189;BME280;52601;53.070;10.600;2022-08-19T03:40:08;100819.81;;;19.15;100.00
33189;BME280;52601;53.070;10.600;2022-08-19T03:42:58;100816.94;;;19.18;100.00
33189;BME280;52601;53.070;10.600;2022-08-19T03:45:44;100810.53;;;19.21;100.00
33189;BME280;52601;53.070;10.600;2022-08-19T03:48:31;100804.19;;;19.33;100.00
33189;BME280;52601;53.070;10.600;2022-08-19T03:51:28;100814.59;;;19.36;100.00
33189;BME280;52601;53.070;10.600;2022-08-19T03:54:21;100792.44;;;19.04;100.00
33189;BME280;52601;53.070;10.600;2022-08-19T03:57:08;100805.22;;;19.21;100.00
33189;BME280;52601;53.070;10.600;2022-08-19T03:59:54;100806.88;;;19.22;100.00
33189;BME280;52601;53.070;10.600;2022-08-19T04:02:57;100808.91;;;19.29;100.00
33189;BME280;52601;53.070;10.600;2022-08-19T04:05:45;100823.28;;;19.38;100.00
33189;BME280;52601;53.070;10.600;2022-08-19T04:08:31;100822.47;;;19.15;100.00
33189;BME280;52601;53.070;10.600;2022-08-19T04:11:19;100827.66;;;19.28;100.00
33189;BME280;52601;53.070;10.600;2022-08-19T04:14:29;100828.38;;;19.30;100.00
33189;BME280;52601;53.070;10.600;2022-08-19T04:17:17;100823.03;;;19.41;100.00
33189;BME280;52601;53.070;10.600;2022-08-19T04:20:03;100838.75;;;19.44;100.00
33189;BME280;52601;53.070;10.600;2022-08-19T04:22:51;100829.28;;;19.51;100.00
33189;BME280;52601;53.070;10.600;2022-08-19T04:25:39;100826.44;;;19.32;100.00
33189;BME280;52601;53.070;10.600;2022-08-19T04:28:25;100830.91;;;19.31;100.00
33189;BME280;52601;53.070;10.600;2022-08-19T04:31:15;100830.69;;;19.23;100.00
33189;BME280;52601;53.070;10.600;2022-08-19T04:34:02;100838.88;;;19.42;100.00
33189;BME280;52601;53.070;10.600;2022-08-19T04:36:48;100839.34;;;19.47;100.00
33189;BME280;52601;53.070;10.600;2022-08-19T04:39:36;100828.84;;;19.35;100.00
33189;BME280;52601;53.070;10.600;2022-08-19T04:42:46;100832.72;;;19.42;100.00
33189;BME280;52601;53.070;10.600;2022-08-19T04:45:32;100841.75;;;19.50;100.00
33189;BME280;52601;53.070;10.600;2022-08-19T04:48:28;100829.41;;;19.49;100.00
33189;BME280;52601;53.070;10.600;2022-08-19T04:51:13;100843.72;;;19.37;100.00
33189;BME280;52601;53.070;10.600;2022-08-19T04:54:01;100849.03;;;19.37;100.00
33189;BME280;52601;53.070;10.600;2022-08-19T04:56:52;100845.44;;;19.38;100.00
33189;BME280;52601;53.070;10.600;2022-08-19T04:59:39;100855.28;;;19.47;100.00
33189;BME280;52601;53.070;10.600;2022-08-19T05:02:24;100857.31;;;19.55;100.00
33189;BME280;52601;53.070;10.600;2022-08-19T05:05:10;100846.59;;;19.45;100.00
33189;BME280;52601;53.070;10.600;2022-08-19T05:07:56;100857.31;;;19.55;100.00
33189;BME280;52601;53.070;10.600;2022-08-19T05:10:41;100868.31;;;19.61;100.00
33189;BME280;52601;53.070;10.600;2022-08-19T05:13:27;100858.94;;;19.46;100.00
33189;BME280;52601;53.070;10.600;2022-08-19T05:16:14;100851.38;;;19.62;100.00
33189;BME280;52601;53.070;10.600;2022-08-19T05:19:00;100842.41;;;19.63;100.00
33189;BME280;52601;53.070;10.600;2022-08-19T05:22:04;100850.97;;;19.67;100.00
33189;BME280;52601;53.070;10.600;2022-08-19T05:25:12;100861.38;;;19.70;100.00
33189;BME280;52601;53.070;10.600;2022-08-19T05:27:58;100858.13;;;19.66;100.00
33189;BME280;52601;53.070;10.600;2022-08-19T05:30:44;100848.44;;;19.65;100.00
33189;BME280;52601;53.070;10.600;2022-08-19T05:33:32;100852.25;;;19.52;100.00
33189;BME280;52601;53.070;10.600;2022-08-19T05:36:17;100858.50;;;19.62;100.00
33189;BME280;52601;53.070;10.600;2022-08-19T05:39:07;100853.91;;;19.64;100.00
33189;BME280;52601;53.070;10.600;2022-08-19T05:42:06;100858.59;;;19.71;100.00
33189;BME280;52601;53.070;10.600;2022-08-19T05:44:52;100846.50;;;19.67;100.00
33189;BME280;52601;53.070;10.600;2022-08-19T05:47:37;100843.41;;;19.62;100.00
33189;BME280;52601;53.070;10.600;2022-08-19T05:50:26;100841.75;;;19.71;100.00
33189;BME280;52601;53.070;10.600;2022-08-19T05:53:12;100831.97;;;19.71;100.00
33189;BME280;52601;53.070;10.600;2022-08-19T05:56:27;100848.38;;;19.76;100.00
33189;BME280;52601;53.070;10.600;2022-08-19T05:59:16;100832.75;;;19.62;100.00
33189;BME280;52601;53.070;10.600;2022-08-19T06:02:05;100830.19;;;19.61;100.00
33189;BME280;52601;53.070;10.600;2022-08-19T06:04:51;100823.47;;;19.77;100.00
33189;BME280;52601;53.070;10.600;2022-08-19T06:07:38;100817.50;;;19.85;100.00
33189;BME280;52601;53.070;10.600;2022-08-19T06:10:24;100820.00;;;19.87;100.00
33189;BME280;52601;53.070;10.600;2022-08-19T06:13:11;100820.00;;;19.87;100.00
33189;BME280;52601;53.070;10.600;2022-08-19T06:15:56;100818.47;;;19.84;100.00
33189;BME280;52601;53.070;10.600;2022-08-19T06:18:42;100816.13;;;19.91;100.00
33189;BME280;52601;53.070;10.600;2022-08-19T06:21:30;100816.44;;;19.97;100.00
33189;BME280;52601;53.070;10.600;2022-08-19T06:24:18;100831.59;;;19.76;100.00
33189;BME280;52601;53.070;10.600;2022-08-19T06:27:04;100830.59;;;19.77;100.00
33189;BME280;52601;53.070;10.600;2022-08-19T06:29:52;100817.44;;;19.75;100.00
33189;BME280;52601;53.070;10.600;2022-08-19T06:32:39;100825.09;;;19.90;100.00
33189;BME280;52601;53.070;10.600;2022-08-19T06:35:27;100820.66;;;20.00;100.00
33189;BME280;52601;53.070;10.600;2022-08-19T06:38:14;100834.16;;;19.87;100.00
33189;BME280;52601;53.070;10.600;2022-08-19T06:41:05;100828.13;;;19.85;100.00
33189;BME280;52601;53.070;10.600;2022-08-19T06:43:53;100842.50;;;19.94;100.00
33189;BME280;52601;53.070;10.600;2022-08-19T06:46:41;100836.38;;;20.03;100.00
33189;BME280;52601;53.070;10.600;2022-08-19T06:49:27;100841.84;;;20.01;100.00
33189;BME280;52601;53.070;10.600;2022-08-19T06:52:16;100843.25;;;19.85;100.00
33189;BME280;52601;53.070;10.600;2022-08-19T06:55:03;100848.72;;;19.83;100.00
33189;BME280;52601;53.070;10.600;2022-08-19T06:57:51;100840.78;;;19.93;100.00
33189;BME280;52601;53.070;10.600;2022-08-19T07:00:38;100843.44;;;20.13;100.00
33189;BME280;52601;53.070;10.600;2022-08-19T07:03:24;100841.63;;;20.14;100.00
33189;BME280;52601;53.070;10.600;2022-08-19T07:06:11;100853.47;;;20.21;100.00
33189;BME280;52601;53.070;10.600;2022-08-19T07:09:18;100857.66;;;20.03;100.00
33189;BME280;52601;53.070;10.600;2022-08-19T07:12:07;100860.09;;;20.06;100.00
33189;BME280;52601;53.070;10.600;2022-08-19T07:14:53;100867.81;;;20.09;100.00
33189;BME280;52601;53.070;10.600;2022-08-19T07:17:39;100866.78;;;20.00;100.00
33189;BME280;52601;53.070;10.600;2022-08-19T07:20:26;100872.88;;;20.12;100.00
33189;BME280;52601;53.070;10.600;2022-08-19T07:23:13;100874.19;;;20.38;100.00
33189;BME280;52601;53.070;10.600;2022-08-19T07:26:06;100878.22;;;20.32;100.00
33189;BME280;52601;53.070;10.600;2022-08-19T07:28:53;100879.34;;;20.30;100.00
33189;BME280;52601;53.070;10.600;2022-08-19T07:31:39;100875.97;;;20.28;100.00
33189;BME280;52601;53.070;10.600;2022-08-19T07:34:29;100876.53;;;20.31;100.00
33189;BME280;52601;53.070;10.600;2022-08-19T07:37:15;100880.16;;;20.30;100.00
33189;BME280;52601;53.070;10.600;2022-08-19T07:40:03;100878.53;;;20.39;100.00
33189;BME280;52601;53.070;10.600;2022-08-19T07:42:49;100885.81;;;20.37;100.00
33189;BME280;52601;53.070;10.600;2022-08-19T07:45:34;100880.03;;;20.32;100.00
33189;BME280;52601;53.070;10.600;2022-08-19T07:48:20;100897.94;;;20.50;100.00
33189;BME280;52601;53.070;10.600;2022-08-19T07:51:06;100903.97;;;20.52;100.00
33189;BME280;52601;53.070;10.600;2022-08-19T07:53:53;100906.00;;;20.60;100.00
33189;BME280;52601;53.070;10.600;2022-08-19T07:56:39;100906.28;;;20.67;100.00
33189;BME280;52601;53.070;10.600;2022-08-19T07:59:26;100904.97;;;20.51;100.00
33189;BME280;52601;53.070;10.600;2022-08-19T08:02:13;100917.13;;;20.75;100.00
33189;BME280;52601;53.070;10.600;2022-08-19T08:04:59;100910.06;;;20.64;100.00
33189;BME280;52601;53.070;10.600;2022-08-19T08:08:03;100920.56;;;20.56;100.00
33189;BME280;52601;53.070;10.600;2022-08-19T08:11:12;100933.28;;;20.52;100.00
33189;BME280;52601;53.070;10.600;2022-08-19T08:14:01;100916.88;;;20.47;100.00
33189;BME280;52601;53.070;10.600;2022-08-19T08:16:50;100934.28;;;20.51;100.00
33189;BME280;52601;53.070;10.600;2022-08-19T08:19:36;100940.09;;;20.36;100.00
33189;BME280;52601;53.070;10.600;2022-08-19T08:22:22;100939.28;;;20.45;100.00
33189;BME280;52601;53.070;10.600;2022-08-19T08:25:27;100945.84;;;20.41;100.00
33189;BME280;52601;53.070;10.600;2022-08-19T08:28:17;100944.03;;;20.41;100.00
33189;BME280;52601;53.070;10.600;2022-08-19T08:31:02;100947.22;;;20.56;100.00
33189;BME280;52601;53.070;10.600;2022-08-19T08:33:54;100930.03;;;20.70;100.00
33189;BME280;52601;53.070;10.600;2022-08-19T08:36:43;100942.03;;;20.85;100.00
33189;BME280;52601;53.070;10.600;2022-08-19T08:39:30;100937.00;;;20.91;100.00
33189;BME280;52601;53.070;10.600;2022-08-19T08:42:27;100942.13;;;21.04;100.00
33189;BME280;52601;53.070;10.600;2022-08-19T08:45:16;100941.88;;;21.16;100.00
33189;BME280;52601;53.070;10.600;2022-08-19T08:48:14;100933.72;;;21.08;100.00
33189;BME280;52601;53.070;10.600;2022-08-19T08:51:18;100945.50;;;21.06;100.00
33189;BME280;52601;53.070;10.600;2022-08-19T08:54:08;100945.78;;;21.03;100.00
33189;BME280;52601;53.070;10.600;2022-08-19T08:56:55;100948.06;;;20.87;100.00
33189;BME280;52601;53.070;10.600;2022-08-19T08:59:43;100950.13;;;20.74;100.00
33189;BME280;52601;53.070;10.600;2022-08-19T09:02:36;100944.72;;;20.94;100.00
33189;BME280;52601;53.070;10.600;2022-08-19T09:05:21;100939.28;;;20.96;100.00
33189;BME280;52601;53.070;10.600;2022-08-19T09:09:03;100928.53;;;21.07;100.00
33189;BME280;52601;53.070;10.600;2022-08-19T09:17:35;100934.38;;;21.01;100.00
33189;BME280;52601;53.070;10.600;2022-08-19T09:20:23;100944.88;;;20.93;100.00
33189;BME280;52601;53.070;10.600;2022-08-19T09:23:10;100942.50;;;20.69;100.00
33189;BME280;52601;53.070;10.600;2022-08-19T09:25:56;100940.09;;;20.66;100.00
33189;BME280;52601;53.070;10.600;2022-08-19T09:28:44;100952.72;;;20.64;100.00
33189;BME280;52601;53.070;10.600;2022-08-19T09:31:33;100943.75;;;20.65;100.00
33189;BME280;52601;53.070;10.600;2022-08-19T09:34:18;100952.47;;;20.46;100.00
33189;BME280;52601;53.070;10.600;2022-08-19T09:37:06;100957.47;;;20.60;100.00
33189;BME280;52601;53.070;10.600;2022-08-19T09:39:52;100964.03;;;20.56;100.00
33189;BME280;52601;53.070;10.600;2022-08-19T09:42:39;100972.50;;;20.62;100.00
33189;BME280;52601;53.070;10.600;2022-08-19T09:45:37;100953.69;;;20.42;100.00
33189;BME280;52601;53.070;10.600;2022-08-19T09:48:22;100968.47;;;20.46;100.00
33189;BME280;52601;53.070;10.600;2022-08-19T09:51:11;100953.28;;;20.37;100.00
33189;BME280;52601;53.070;10.600;2022-08-19T09:54:02;100967.94;;;20.52;100.00
33189;BME280;52601;53.070;10.600;2022-08-19T09:56:49;100974.16;;;20.63;100.00
33189;BME280;52601;53.070;10.600;2022-08-19T09:59:35;100974.50;;;20.69;100.00
33189;BME280;52601;53.070;10.600;2022-08-19T10:02:21;100964.25;;;20.74;100.00
33189;BME280;52601;53.070;10.600;2022-08-19T10:05:07;100952.00;;;20.62;100.00
33189;BME280;52601;53.070;10.600;2022-08-19T10:08:11;100968.34;;;20.48;100.00
33189;BME280;52601;53.070;10.600;2022-08-19T10:10:59;100966.03;;;20.64;100.00
33189;BME280;52601;53.070;10.600;2022-08-19T10:14:05;100962.78;;;20.60;100.00
33189;BME280;52601;53.070;10.600;2022-08-19T10:16:51;100972.75;;;20.58;100.00
33189;BME280;52601;53.070;10.600;2022-08-19T10:19:37;100966.78;;;20.45;100.00
33189;BME280;52601;53.070;10.600;2022-08-19T10:22:23;100976.13;;;20.60;100.00
33189;BME280;52601;53.070;10.600;2022-08-19T10:25:10;100975.31;;;20.60;100.00
33189;BME280;52601;53.070;10.600;2022-08-19T10:27:58;100969.97;;;20.39;100.00
33189;BME280;52601;53.070;10.600;2022-08-19T10:30:43;100976.06;;;20.30;100.00
33189;BME280;52601;53.070;10.600;2022-08-19T10:33:29;100981.34;;;20.41;100.00
33189;BME280;52601;53.070;10.600;2022-08-19T10:36:36;100983.41;;;20.58;100.00
33189;BME280;52601;53.070;10.600;2022-08-19T10:39:40;100977.59;;;20.74;100.00
33189;BME280;52601;53.070;10.600;2022-08-19T10:42:27;100977.56;;;20.65;100.00
33189;BME280;52601;53.070;10.600;2022-08-19T10:45:13;100978.94;;;20.59;100.00
33189;BME280;52601;53.070;10.600;2022-08-19T10:47:59;100976.50;;;20.77;100.00
33189;BME280;52601;53.070;10.600;2022-08-19T10:50:46;100979.22;;;20.86;100.00
33189;BME280;52601;53.070;10.600;2022-08-19T10:53:50;100963.63;;;20.82;100.00
33189;BME280;52601;53.070;10.600;2022-08-19T10:56:36;100965.50;;;21.21;100.00
33189;BME280;52601;53.070;10.600;2022-08-19T10:59:37;100954.84;;;21.30;100.00
33189;BME280;52601;53.070;10.600;2022-08-19T11:02:23;100956.00;;;21.37;100.00
33189;BME280;52601;53.070;10.600;2022-08-19T11:05:09;100951.81;;;21.44;100.00
33189;BME280;52601;53.070;10.600;2022-08-19T11:07:58;100938.75;;;21.51;100.00
33189;BME280;52601;53.070;10.600;2022-08-19T11:10:47;100953.84;;;21.81;100.00
33189;BME280;52601;53.070;10.600;2022-08-19T11:13:36;100963.13;;;21.86;100.00
33189;BME280;52601;53.070;10.600;2022-08-19T11:16:25;100958.91;;;21.84;100.00
33189;BME280;52601;53.070;10.600;2022-08-19T11:19:13;100960.69;;;21.74;100.00
33189;BME280;52601;53.070;10.600;2022-08-19T11:22:01;100958.78;;;21.85;100.00
33189;BME280;52601;53.070;10.600;2022-08-19T11:24:48;100958.88;;;21.74;100.00
33189;BME280;52601;53.070;10.600;2022-08-19T11:27:33;100958.50;;;21.98;100.00
33189;BME280;52601;53.070;10.600;2022-08-19T11:30:18;100952.75;;;21.93;100.00
33189;BME280;52601;53.070;10.600;2022-08-19T11:33:04;100942.44;;;21.69;100.00
33189;BME280;52601;53.070;10.600;2022-08-19T11:35:49;100944.09;;;21.61;100.00
33189;BME280;52601;53.070;10.600;2022-08-19T11:38:35;100944.19;;;21.40;100.00
33189;BME280;52601;53.070;10.600;2022-08-19T11:41:22;100953.56;;;21.25;100.00
33189;BME280;52601;53.070;10.600;2022-08-19T11:44:08;100936.25;;;21.69;100.00
33189;BME280;52601;53.070;10.600;2022-08-19T11:46:54;100923.59;;;21.80;100.00
33189;BME280;52601;53.070;10.600;2022-08-19T11:49:40;100931.91;;;22.06;100.00
33189;BME280;52601;53.070;10.600;2022-08-19T11:52:26;100937.09;;;22.36;100.00
33189;BME280;52601;53.070;10.600;2022-08-19T11:55:13;100934.94;;;22.49;100.00
33189;BME280;52601;53.070;10.600;2022-08-19T11:57:59;100937.53;;;22.12;100.00
33189;BME280;52601;53.070;10.600;2022-08-19T12:00:44;100929.66;;;22.20;100.00
33189;BME280;52601;53.070;10.600;2022-08-19T12:03:30;100931.03;;;22.34;100.00
33189;BME280;52601;53.070;10.600;2022-08-19T12:06:18;100930.78;;;22.18;100.00
33189;BME280;52601;53.070;10.600;2022-08-19T12:09:06;100931.44;;;22.49;100.00
33189;BME280;52601;53.070;10.600;2022-08-19T12:11:53;100932.59;;;22.92;100.00
33189;BME280;52601;53.070;10.600;2022-08-19T12:14:39;100930.34;;;23.15;100.00
33189;BME280;52601;53.070;10.600;2022-08-19T12:17:26;100927.00;;;23.31;100.00
33189;BME280;52601;53.070;10.600;2022-08-19T12:20:12;100926.38;;;23.19;100.00
33189;BME280;52601;53.070;10.600;2022-08-19T12:23:00;100935.47;;;23.08;100.00
33189;BME280;52601;53.070;10.600;2022-08-19T12:25:48;100939.47;;;23.22;100.00
33189;BME280;52601;53.070;10.600;2022-08-19T12:28:37;100943.22;;;23.29;100.00
33189;BME280;52601;53.070;10.600;2022-08-19T12:31:23;100931.38;;;23.59;100.00
33189;BME280;52601;53.070;10.600;2022-08-19T12:34:08;100931.25;;;23.60;100.00
33189;BME280;52601;53.070;10.600;2022-08-19T12:36:54;100932.53;;;23.29;100.00
33189;BME280;52601;53.070;10.600;2022-08-19T12:39:41;100949.31;;;23.31;100.00
33189;BME280;52601;53.070;10.600;2022-08-19T12:42:27;100948.19;;;23.24;100.00
33189;BME280;52601;53.070;10.600;2022-08-19T12:45:13;100957.38;;;23.22;100.00
33189;BME280;52601;53.070;10.600;2022-08-19T12:48:00;100950.41;;;23.29;100.00
33189;BME280;52601;53.070;10.600;2022-08-19T12:51:08;100956.19;;;23.06;100.00
33189;BME280;52601;53.070;10.600;2022-08-19T12:53:54;100947.09;;;23.17;100.00
33189;BME280;52601;53.070;10.600;2022-08-19T12:56:40;100957.91;;;23.25;100.00
33189;BME280;52601;53.070;10.600;2022-08-19T12:59:27;100963.91;;;23.09;100.00
33189;BME280;52601;53.070;10.600;2022-08-19T13:02:13;100946.75;;;23.74;100.00
33189;BME280;52601;53.070;10.600;2022-08-19T13:04:58;100946.63;;;23.93;99.26
33189;BME280;52601;53.070;10.600;2022-08-19T13:07:46;100957.13;;;24.48;95.04
33189;BME280;52601;53.070;10.600;2022-08-19T13:10:34;100944.34;;;24.85;93.19
33189;BME280;52601;53.070;10.600;2022-08-19T13:13:20;100947.31;;;24.82;94.11
33189;BME280;52601;53.070;10.600;2022-08-19T13:16:06;100933.03;;;25.41;90.93
33189;BME280;52601;53.070;10.600;2022-08-19T13:18:52;100937.88;;;25.45;87.84
33189;BME280;52601;53.070;10.600;2022-08-19T13:21:37;100947.63;;;25.46;88.50
33189;BME280;52601;53.070;10.600;2022-08-19T13:24:23;100944.53;;;25.25;91.28
33189;BME280;52601;53.070;10.600;2022-08-19T13:27:17;100939.97;;;25.84;86.18
33189;BME280;52601;53.070;10.600;2022-08-19T13:30:05;100934.44;;;26.01;85.97
33189;BME280;52601;53.070;10.600;2022-08-19T13:33:10;100947.72;;;25.79;86.61
33189;BME280;52601;53.070;10.600;2022-08-19T13:36:01;100951.81;;;25.41;89.03
33189;BME280;52601;53.070;10.600;2022-08-19T13:38:47;100955.34;;;24.56;92.68
33189;BME280;52601;53.070;10.600;2022-08-19T13:41:33;100957.03;;;24.32;95.74
33189;BME280;52601;53.070;10.600;2022-08-19T13:44:19;100952.25;;;24.18;95.99
33189;BME280;52601;53.070;10.600;2022-08-19T13:47:05;100946.75;;;23.74;98.44
33189;BME280;52601;53.070;10.600;2022-08-19T13:49:52;100948.56;;;23.39;99.80
33189;BME280;52601;53.070;10.600;2022-08-19T13:52:38;100927.72;;;23.60;100.00
33189;BME280;52601;53.070;10.600;2022-08-19T13:55:25;100938.81;;;23.82;98.27
33189;BME280;52601;53.070;10.600;2022-08-19T13:58:10;100937.50;;;23.86;98.48
33189;BME280;52601;53.070;10.600;2022-08-19T14:00:56;100935.06;;;24.11;98.23
33189;BME280;52601;53.070;10.600;2022-08-19T14:03:43;100943.69;;;24.40;95.48
33189;BME280;52601;53.070;10.600;2022-08-19T14:06:32;100935.06;;;24.11;96.30
33189;BME280;52601;53.070;10.600;2022-08-19T14:09:17;100937.28;;;23.98;96.53
33189;BME280;52601;53.070;10.600;2022-08-19T14:12:03;100938.75;;;23.92;97.28
33189;BME280;52601;53.070;10.600;2022-08-19T14:14:49;100932.84;;;23.88;97.30
33189;BME280;52601;53.070;10.600;2022-08-19T14:17:38;100926.63;;;24.23;96.05
33189;BME280;52601;53.070;10.600;2022-08-19T14:20:24;100924.66;;;24.51;95.27
33189;BME280;52601;53.070;10.600;2022-08-19T14:23:10;100917.44;;;25.60;91.75
33189;BME280;52601;53.070;10.600;2022-08-19T14:26:11;100916.84;;;28.83;74.15